Hayden, IN

10:52 AM EST ar Tachwedd 19, 2017 (GMT -0500)
Weston | | Change Station

Elev 597 ft 38.92 °N, 85.71 °W | Updated 28 seconds ago

Cymylog
Cymylog
35.6 °F
Feels Like 30 °F
N
6.8
Gwynt Cyfnewidiol Gwynt from Gorllewin

Heddiw
High -- | Low -- °F
--% Chance of Precip.
Yesterday
High -- | Low -- °F
Precip. -- mod
Gwasgedd 30.08 mod
Gwelededd 10.0 Milltiroedd
Clouds Cymylog Yn Bennaf 2800 ft
Oerfel Gwynt 30 °F
Gwlithbwynt 32 °F
Lleithder 87%
Rainfall 0.00 mod
Snow Depth Not available.
7:30 AM 5:25 PM
New, 1% visible
METAR KBAK 191546Z 28011G17KT 10SM BKN028 02/M03 A3008
Gwasgedd 30.08 mod
Gwelededd 10.0 Milltiroedd
Clouds Cymylog Yn Bennaf 2800 ft
Oerfel Gwynt 30 °F
Gwlithbwynt 32 °F
Lleithder 87%
Rainfall 0.00 mod
Snow Depth Not available.
7:30 AM 5:25 PM
New, 1% visible
METAR KBAK 191546Z 28011G17KT 10SM BKN028 02/M03 A3008

Get Severe Weather Alerts

Thanks for signing up!

Be on the lookout for a verification email in your inbox.

You'll start receiving the daily forecast at 6 AM.

×

10-Day Weather Forecast

Almanac

Astronomy

Nov. 19, 2017 Rise Set
Actual Time
Civil Twilight
Nautical Twilight
Astronomical Twilight
Moon
Length Of Visible Light
Length of Day
Tomorrow will be .
, % of the Moon is Illuminated

Today's Extremes

State Highs State Lows

Community

WunderPhotos

Category 6

Welcome to Category 6. This is the collective home for Weather Underground's featured writeups by Dr. Jeff Masters (right), Bob Henson (left), Chris Burt, and other regular contributors.

Nearby

Air Quality

  Air Quality AQ Index Pollutant
Not available.

Snow Depth

Station Depth Elevation

Earthquake Activity

City Distance Mag. Time & Date
Minimum magnitude displayed is 2.5.

Coastal Water Temperatures

Lle Tymheredd

Stations

Nearby Weather Stations

Station Location Temp Oerfel Gwynt Gwlithbwynt Lleithder Gwynt Precip. Elev Diweddarwyd Type
                   

Watches & Warnings

There are currently no watches in effect.